createdAt,value
2023-05-20T00:00:27.001Z,14.50
2023-05-20T00:00:58.840Z,14.50
2023-05-20T00:01:31.719Z,14.50
2023-05-20T00:02:03.659Z,14.50
2023-05-20T00:02:35.650Z,14.50
2023-05-20T00:03:08.722Z,14.50
2023-05-20T00:03:40.734Z,14.50
2023-05-20T00:04:12.839Z,14.50
2023-05-20T00:04:45.944Z,14.50
2023-05-20T00:05:17.829Z,14.40
2023-05-20T00:05:49.671Z,14.50
2023-05-20T00:06:22.539Z,14.50
2023-05-20T00:06:56.102Z,14.50
2023-05-20T00:07:28.039Z,14.50
2023-05-20T00:08:04.508Z,14.50
2023-05-20T00:08:36.392Z,14.50
2023-05-20T00:09:08.272Z,14.50
2023-05-20T00:09:41.078Z,14.50
2023-05-20T00:10:13.128Z,14.40
2023-05-20T00:10:45.065Z,14.40
2023-05-20T00:11:17.897Z,14.40
2023-05-20T00:11:49.734Z,14.40
2023-05-20T00:12:21.589Z,14.40
2023-05-20T00:12:54.377Z,14.40
2023-05-20T00:13:26.382Z,14.50
2023-05-20T00:13:58.221Z,14.50
2023-05-20T00:14:31.033Z,14.50
2023-05-20T00:15:03.127Z,14.50
2023-05-20T00:15:36.178Z,14.50
2023-05-20T00:16:09.443Z,14.50
2023-05-20T00:16:41.797Z,14.50
2023-05-20T00:17:13.827Z,14.50
2023-05-20T00:17:46.651Z,14.50
2023-05-20T00:18:18.520Z,14.50
2023-05-20T00:18:50.461Z,14.50
2023-05-20T00:19:23.381Z,14.50
2023-05-20T00:19:55.498Z,14.50
2023-05-20T00:20:27.649Z,14.50
2023-05-20T00:21:00.496Z,14.50
2023-05-20T00:21:33.786Z,14.60
2023-05-20T00:22:07.226Z,14.60
2023-05-20T00:22:40.068Z,14.50
2023-05-20T00:23:11.918Z,14.50
2023-05-20T00:23:43.782Z,14.50
2023-05-20T00:24:16.667Z,14.50
2023-05-20T00:24:48.757Z,14.50
2023-05-20T00:25:20.714Z,14.50
2023-05-20T00:25:53.500Z,14.50
2023-05-20T00:26:25.977Z,14.50
2023-05-20T00:26:57.865Z,14.50
2023-05-20T00:27:30.746Z,14.50
2023-05-20T00:28:02.731Z,14.50
2023-05-20T00:28:34.618Z,14.50
2023-05-20T00:29:07.403Z,14.50
2023-05-20T00:29:39.249Z,14.50
2023-05-20T00:30:12.266Z,14.50
2023-05-20T00:30:44.160Z,14.50
2023-05-20T00:31:16.994Z,14.50
2023-05-20T00:31:48.853Z,14.50
2023-05-20T00:32:20.829Z,14.50
2023-05-20T00:32:52.872Z,14.50
2023-05-20T00:33:25.696Z,14.50
2023-05-20T00:33:57.504Z,14.50
2023-05-20T00:34:29.413Z,14.50
2023-05-20T00:35:02.918Z,14.50
2023-05-20T00:35:35.299Z,14.50
2023-05-20T00:36:07.398Z,14.50
2023-05-20T00:36:40.198Z,14.50
2023-05-20T00:37:13.362Z,14.40
2023-05-20T00:37:45.285Z,14.50
2023-05-20T00:38:17.120Z,14.50
2023-05-20T00:38:49.946Z,14.50
2023-05-20T00:39:21.823Z,14.50
2023-05-20T00:39:53.872Z,14.50
2023-05-20T00:40:26.755Z,14.50
2023-05-20T00:40:58.599Z,14.50
2023-05-20T00:41:30.568Z,14.50
2023-05-20T00:42:03.486Z,14.50
2023-05-20T00:42:35.388Z,14.50
2023-05-20T00:43:07.406Z,14.50
2023-05-20T00:43:40.240Z,14.50
2023-05-20T00:44:12.158Z,14.50
2023-05-20T00:44:44.042Z,14.40
2023-05-20T00:45:16.250Z,14.40
2023-05-20T00:45:49.352Z,14.40
2023-05-20T00:46:21.577Z,14.40
2023-05-20T00:46:54.066Z,14.40
2023-05-20T00:47:30.272Z,14.40
2023-05-20T00:48:04.089Z,14.40
2023-05-20T00:48:41.237Z,14.40
2023-05-20T00:49:14.099Z,14.40
2023-05-20T00:49:48.786Z,14.30
2023-05-20T00:50:22.305Z,14.30
2023-05-20T00:50:55.271Z,14.30
2023-05-20T00:51:27.232Z,14.30
2023-05-20T00:51:59.322Z,14.40
2023-05-20T00:52:34.415Z,14.30
2023-05-20T00:53:06.634Z,14.40
2023-05-20T00:53:39.233Z,14.40
2023-05-20T00:54:11.502Z,14.40
2023-05-20T00:54:44.461Z,14.40
2023-05-20T00:55:16.678Z,14.50
2023-05-20T00:55:48.955Z,14.40
2023-05-20T00:56:22.846Z,14.40
2023-05-20T00:56:55.064Z,14.40
2023-05-20T00:57:27.213Z,14.40
2023-05-20T00:58:00.230Z,14.40
2023-05-20T00:58:32.324Z,14.40
2023-05-20T00:59:04.857Z,14.40
2023-05-20T00:59:38.515Z,14.60
2023-05-20T01:00:11.443Z,14.40
2023-05-20T01:00:43.422Z,14.40
2023-05-20T01:01:15.329Z,14.40
2023-05-20T01:01:48.387Z,14.40
2023-05-20T01:02:20.778Z,14.40
2023-05-20T01:02:52.966Z,14.40
2023-05-20T01:03:26.169Z,14.40
2023-05-20T01:03:59.126Z,14.40
2023-05-20T01:04:31.487Z,14.40
2023-05-20T01:05:04.426Z,14.40
2023-05-20T01:05:37.652Z,14.40
2023-05-20T01:06:10.955Z,14.40
2023-05-20T01:06:43.831Z,14.40
2023-05-20T01:07:17.377Z,14.40
2023-05-20T01:07:51.103Z,14.40
2023-05-20T01:08:25.705Z,14.40
2023-05-20T01:08:57.596Z,14.40
2023-05-20T01:09:31.177Z,14.40
2023-05-20T01:10:04.596Z,14.40
2023-05-20T01:10:42.016Z,14.40
2023-05-20T01:11:20.095Z,14.30
2023-05-20T01:11:58.937Z,14.50
2023-05-20T01:12:39.255Z,14.30
2023-05-20T01:13:15.779Z,14.30
2023-05-20T01:13:53.762Z,14.30
2023-05-20T01:14:29.946Z,14.30
2023-05-20T01:15:05.712Z,14.20
2023-05-20T01:15:42.953Z,14.20
2023-05-20T01:16:16.171Z,14.20
2023-05-20T01:16:49.789Z,14.20
2023-05-20T01:17:26.790Z,14.20
2023-05-20T01:18:02.910Z,14.20
2023-05-20T01:18:35.802Z,14.30
2023-05-20T01:19:29.686Z,14.20
2023-05-20T01:20:04.138Z,14.20
2023-05-20T01:20:37.138Z,14.20
2023-05-20T01:21:13.149Z,14.20
2023-05-20T01:21:46.953Z,14.20
2023-05-20T01:22:19.092Z,14.20
2023-05-20T01:22:55.396Z,14.30
2023-05-20T01:23:32.694Z,14.30
2023-05-20T01:24:05.784Z,14.30
2023-05-20T01:24:38.660Z,14.30
2023-05-20T01:25:10.493Z,14.30
2023-05-20T01:25:42.408Z,14.30
2023-05-20T01:26:15.464Z,14.30
2023-05-20T01:26:48.369Z,14.30
2023-05-20T01:27:22.521Z,14.30
2023-05-20T01:27:57.505Z,14.30
2023-05-20T01:28:30.220Z,14.30
2023-05-20T01:29:04.462Z,14.30
2023-05-20T01:29:38.154Z,14.30
2023-05-20T01:30:11.288Z,14.30
2023-05-20T01:30:47.683Z,14.40
2023-05-20T01:31:24.905Z,14.30
2023-05-20T01:31:58.953Z,14.30
2023-05-20T01:32:34.842Z,14.30
2023-05-20T01:33:11.247Z,14.30
2023-05-20T01:33:44.775Z,14.20
2023-05-20T01:34:16.977Z,14.20
2023-05-20T01:34:49.900Z,14.10
2023-05-20T01:35:23.974Z,14.10
2023-05-20T01:35:57.480Z,14.10
2023-05-20T01:36:31.348Z,14.10
2023-05-20T01:37:06.535Z,14.20
2023-05-20T01:37:40.380Z,14.20
2023-05-20T01:38:16.655Z,14.20
2023-05-20T01:38:48.935Z,14.20
2023-05-20T01:39:21.612Z,14.20
2023-05-20T01:39:54.850Z,14.20
2023-05-20T01:40:29.264Z,14.20
2023-05-20T01:41:04.957Z,14.20
2023-05-20T01:41:37.919Z,14.20
2023-05-20T01:42:11.878Z,14.20
2023-05-20T01:42:45.796Z,14.20
2023-05-20T01:43:18.441Z,14.20
2023-05-20T01:43:51.465Z,14.20
2023-05-20T01:44:23.512Z,14.30
2023-05-20T01:44:55.548Z,14.20
2023-05-20T01:45:28.430Z,14.20
2023-05-20T01:46:02.754Z,14.30
2023-05-20T01:46:34.755Z,14.30
2023-05-20T01:47:07.766Z,14.30
2023-05-20T01:47:39.675Z,14.30
2023-05-20T01:48:12.313Z,14.30
2023-05-20T01:48:45.247Z,14.30
2023-05-20T01:49:17.124Z,14.30
2023-05-20T01:49:49.533Z,14.30
2023-05-20T01:50:22.554Z,14.30
2023-05-20T01:50:54.394Z,14.30
2023-05-20T01:51:26.572Z,14.30
2023-05-20T01:51:59.837Z,14.30
2023-05-20T01:52:31.845Z,14.30
2023-05-20T01:53:03.838Z,14.30
2023-05-20T01:53:38.172Z,14.30
2023-05-20T01:54:09.990Z,14.30
2023-05-20T01:54:41.862Z,14.30
2023-05-20T01:55:14.652Z,14.30
2023-05-20T01:55:46.552Z,14.30
2023-05-20T01:56:18.384Z,14.30
2023-05-20T01:56:50.836Z,14.30
2023-05-20T01:57:24.815Z,14.30
2023-05-20T01:57:56.795Z,14.30
2023-05-20T01:58:28.631Z,14.30
2023-05-20T01:59:01.445Z,14.30
2023-05-20T01:59:33.290Z,14.30
2023-05-20T02:00:06.808Z,14.30
2023-05-20T02:00:39.725Z,14.20
2023-05-20T02:01:11.699Z,14.30
2023-05-20T02:01:43.673Z,14.30
2023-05-20T02:02:16.036Z,14.20
2023-05-20T02:02:48.947Z,14.20
2023-05-20T02:03:20.926Z,14.20
2023-05-20T02:03:52.857Z,14.20
2023-05-20T02:04:25.682Z,14.20
2023-05-20T02:04:57.555Z,14.30
2023-05-20T02:05:30.725Z,14.30
2023-05-20T02:06:02.672Z,14.30
2023-05-20T02:06:34.644Z,14.30
2023-05-20T02:07:06.532Z,14.30
2023-05-20T02:07:39.327Z,14.30
2023-05-20T02:08:11.192Z,14.30
2023-05-20T02:08:44.399Z,14.30
2023-05-20T02:09:19.025Z,14.30
2023-05-20T02:09:50.894Z,14.30
2023-05-20T02:10:22.769Z,14.20
2023-05-20T02:10:55.751Z,14.20
2023-05-20T02:11:27.874Z,14.20
2023-05-20T02:12:00.626Z,14.20
2023-05-20T02:12:33.471Z,14.20
2023-05-20T02:13:05.426Z,14.20
2023-05-20T02:13:37.378Z,14.20
2023-05-20T02:14:09.236Z,14.20
2023-05-20T02:14:42.019Z,14.20
2023-05-20T02:15:13.874Z,14.20
2023-05-20T02:15:45.768Z,14.20
2023-05-20T02:16:18.803Z,14.20
2023-05-20T02:16:50.941Z,14.20
2023-05-20T02:17:22.918Z,14.20
2023-05-20T02:17:57.948Z,14.20
2023-05-20T02:18:29.964Z,14.20
2023-05-20T02:19:02.098Z,14.20
2023-05-20T02:19:34.998Z,14.20
2023-05-20T02:20:08.221Z,14.20
2023-05-20T02:20:41.029Z,14.20
2023-05-20T02:21:12.903Z,14.20
2023-05-20T02:21:46.941Z,14.20
2023-05-20T02:22:18.972Z,14.20
2023-05-20T02:22:50.800Z,14.20
2023-05-20T02:23:22.692Z,14.20
2023-05-20T02:23:56.864Z,14.20
2023-05-20T02:24:28.725Z,14.20
2023-05-20T02:25:00.556Z,14.20
2023-05-20T02:25:33.816Z,14.10
2023-05-20T02:26:06.016Z,14.20
2023-05-20T02:26:37.872Z,14.20
2023-05-20T02:27:10.818Z,14.20
2023-05-20T02:27:42.662Z,14.20
2023-05-20T02:28:15.686Z,14.10
2023-05-20T02:28:50.589Z,14.20
2023-05-20T02:29:22.706Z,14.10
2023-05-20T02:29:54.670Z,14.10
2023-05-20T02:30:28.365Z,14.10
2023-05-20T02:31:00.337Z,14.10
2023-05-20T02:31:32.160Z,14.30
2023-05-20T02:32:04.626Z,14.10
2023-05-20T02:32:38.109Z,14.10
2023-05-20T02:33:10.438Z,14.10
2023-05-20T02:33:42.332Z,14.10
2023-05-20T02:34:15.208Z,14.10
2023-05-20T02:34:47.144Z,14.10
2023-05-20T02:35:18.985Z,14.10
2023-05-20T02:35:51.745Z,14.10
2023-05-20T02:36:23.671Z,14.10
2023-05-20T02:36:56.439Z,14.10
2023-05-20T02:37:29.439Z,14.10
2023-05-20T02:38:01.281Z,14.10
2023-05-20T02:38:33.101Z,14.10
2023-05-20T02:39:07.242Z,14.10
2023-05-20T02:39:39.099Z,14.10
2023-05-20T02:40:11.890Z,14.10
2023-05-20T02:40:45.648Z,14.10
2023-05-20T02:41:17.552Z,14.10
2023-05-20T02:41:49.433Z,14.10
2023-05-20T02:42:21.615Z,14.10
2023-05-20T02:42:54.392Z,14.10
2023-05-20T02:43:26.239Z,14.10
2023-05-20T02:43:58.042Z,14.10
2023-05-20T02:44:30.086Z,14.10
2023-05-20T02:45:03.488Z,14.10
2023-05-20T02:45:35.552Z,14.10
2023-05-20T02:46:07.455Z,14.10
2023-05-20T02:46:40.390Z,14.20
2023-05-20T02:47:12.382Z,14.10
2023-05-20T02:47:44.469Z,14.10
2023-05-20T02:48:16.371Z,14.10
2023-05-20T02:48:49.250Z,14.10
2023-05-20T02:49:21.084Z,14.10
2023-05-20T02:49:52.937Z,14.10
2023-05-20T02:50:25.115Z,14.10
2023-05-20T02:50:57.913Z,14.10
2023-05-20T02:51:31.847Z,14.10
2023-05-20T02:52:04.316Z,14.10
2023-05-20T02:52:37.165Z,14.10
2023-05-20T02:53:09.036Z,14.10
2023-05-20T02:53:41.058Z,14.20
2023-05-20T02:54:15.377Z,14.10
2023-05-20T02:54:47.341Z,14.10
2023-05-20T02:55:19.314Z,14.10
2023-05-20T02:55:52.223Z,14.10
2023-05-20T02:56:24.614Z,14.10
2023-05-20T02:56:56.513Z,14.10
2023-05-20T02:57:29.349Z,14.10
2023-05-20T02:58:01.669Z,14.10
2023-05-20T02:58:35.543Z,14.10
2023-05-20T02:59:08.402Z,14.10
2023-05-20T02:59:40.608Z,14.10
2023-05-20T03:00:13.244Z,14.10
2023-05-20T03:00:46.133Z,14.00
2023-05-20T03:01:18.066Z,14.10
2023-05-20T03:01:49.986Z,14.10
2023-05-20T03:02:23.376Z,14.10
2023-05-20T03:02:55.295Z,14.10
2023-05-20T03:03:27.432Z,14.10
2023-05-20T03:03:59.379Z,14.20
2023-05-20T03:04:32.586Z,14.10
2023-05-20T03:05:05.121Z,14.10
2023-05-20T03:05:37.951Z,14.10
2023-05-20T03:06:10.023Z,14.10
2023-05-20T03:06:44.278Z,14.10
2023-05-20T03:07:19.374Z,14.10
2023-05-20T03:07:51.222Z,14.10
2023-05-20T03:08:24.503Z,14.10
2023-05-20T03:08:56.595Z,14.10
2023-05-20T03:09:29.827Z,14.10
2023-05-20T03:10:03.350Z,14.10
2023-05-20T03:10:35.480Z,13.90
2023-05-20T03:11:07.305Z,14.10
2023-05-20T03:11:40.157Z,14.10
2023-05-20T03:12:12.063Z,14.10
2023-05-20T03:12:43.911Z,14.10
2023-05-20T03:13:16.778Z,14.10
2023-05-20T03:13:48.657Z,14.10
2023-05-20T03:14:20.542Z,14.10
2023-05-20T03:14:55.218Z,14.10
2023-05-20T03:15:27.179Z,14.10
2023-05-20T03:16:01.383Z,14.10
2023-05-20T03:16:35.387Z,14.10
2023-05-20T03:17:08.298Z,14.10
2023-05-20T03:17:40.208Z,14.10
2023-05-20T03:18:13.702Z,14.20
2023-05-20T03:18:46.208Z,14.20
2023-05-20T03:19:18.118Z,14.10
2023-05-20T03:19:50.966Z,14.10
2023-05-20T03:20:24.237Z,14.10
2023-05-20T03:20:56.257Z,14.10
2023-05-20T03:21:29.198Z,14.10
2023-05-20T03:22:01.219Z,14.10
2023-05-20T03:22:33.268Z,14.20
2023-05-20T03:23:06.075Z,14.20
2023-05-20T03:23:39.026Z,14.10
2023-05-20T03:24:10.914Z,14.20
2023-05-20T03:24:44.281Z,14.20
2023-05-20T03:25:17.269Z,14.20
2023-05-20T03:25:49.266Z,14.10
2023-05-20T03:26:21.677Z,14.10
2023-05-20T03:26:54.485Z,14.10
2023-05-20T03:27:26.570Z,14.10
2023-05-20T03:27:59.486Z,14.10
2023-05-20T03:28:32.302Z,14.10
2023-05-20T03:29:05.146Z,14.10
2023-05-20T03:29:37.672Z,14.10
2023-05-20T03:30:11.141Z,14.10
2023-05-20T03:30:42.957Z,14.10
2023-05-20T03:31:14.823Z,14.20
2023-05-20T03:31:47.694Z,14.10
2023-05-20T03:32:19.579Z,14.10
2023-05-20T03:32:51.941Z,14.10
2023-05-20T03:33:26.079Z,14.10
2023-05-20T03:33:58.011Z,14.10
2023-05-20T03:34:30.207Z,14.10
2023-05-20T03:35:03.184Z,14.10
2023-05-20T03:35:35.256Z,14.20
2023-05-20T03:36:08.429Z,14.20
2023-05-20T03:36:40.469Z,14.10
2023-05-20T03:37:12.412Z,14.10
2023-05-20T03:37:45.317Z,14.10
2023-05-20T03:38:17.266Z,14.10
2023-05-20T03:38:49.133Z,14.10
2023-05-20T03:39:22.316Z,14.10
2023-05-20T03:39:55.564Z,14.10
2023-05-20T03:40:27.639Z,14.10
2023-05-20T03:41:00.760Z,14.10
2023-05-20T03:41:32.710Z,14.10
2023-05-20T03:42:04.997Z,14.10
2023-05-20T03:42:39.212Z,14.10
2023-05-20T03:43:11.089Z,14.10
2023-05-20T03:43:43.034Z,14.10
2023-05-20T03:44:15.834Z,14.10
2023-05-20T03:44:47.697Z,14.10
2023-05-20T03:45:19.620Z,14.20
2023-05-20T03:45:52.443Z,14.10
2023-05-20T03:46:24.312Z,14.00
2023-05-20T03:46:56.238Z,14.00
2023-05-20T03:47:29.434Z,14.00
2023-05-20T03:48:03.320Z,14.10
2023-05-20T03:48:35.284Z,14.00
2023-05-20T03:49:08.108Z,14.10
2023-05-20T03:49:41.039Z,14.10
2023-05-20T03:50:12.891Z,14.10
2023-05-20T03:50:46.034Z,14.10
2023-05-20T03:51:17.854Z,14.10
2023-05-20T03:51:49.726Z,14.00
2023-05-20T03:52:22.926Z,14.00
2023-05-20T03:52:54.854Z,14.00
2023-05-20T03:53:26.862Z,14.00
2023-05-20T03:53:59.762Z,14.00
2023-05-20T03:54:31.684Z,14.00
2023-05-20T03:55:05.643Z,14.00
2023-05-20T03:55:37.553Z,14.00
2023-05-20T03:56:10.542Z,14.00
2023-05-20T03:56:42.404Z,14.00
2023-05-20T03:57:14.266Z,14.00
2023-05-20T03:57:47.085Z,14.00
2023-05-20T03:58:22.072Z,14.00
2023-05-20T03:58:53.935Z,14.10
2023-05-20T03:59:27.164Z,14.10
2023-05-20T03:59:59.029Z,14.10
2023-05-20T04:00:31.804Z,14.10
2023-05-20T04:01:04.794Z,14.10
2023-05-20T04:01:37.261Z,14.10
2023-05-20T04:02:09.860Z,14.10
2023-05-20T04:02:42.959Z,14.10
2023-05-20T04:03:15.588Z,14.10
2023-05-20T04:03:47.643Z,14.10
2023-05-20T04:04:21.111Z,14.10
2023-05-20T04:04:53.172Z,14.10
2023-05-20T04:05:25.068Z,14.20
2023-05-20T04:05:57.907Z,14.10
2023-05-20T04:06:29.806Z,14.10
2023-05-20T04:07:01.637Z,14.10
2023-05-20T04:07:34.009Z,14.10
2023-05-20T04:08:06.887Z,14.10
2023-05-20T04:08:39.049Z,14.10
2023-05-20T04:09:11.509Z,14.00
2023-05-20T04:09:44.342Z,14.00
2023-05-20T04:10:19.021Z,14.00
2023-05-20T04:10:50.870Z,14.00
2023-05-20T04:11:23.927Z,14.00
2023-05-20T04:11:55.892Z,14.00
2023-05-20T04:12:30.493Z,14.00
2023-05-20T04:13:03.363Z,14.00
2023-05-20T04:13:35.267Z,14.00
2023-05-20T04:14:07.290Z,14.10
2023-05-20T04:14:42.124Z,14.00
2023-05-20T04:15:14.860Z,14.00
2023-05-20T04:15:47.890Z,14.00
2023-05-20T04:16:20.947Z,14.00
2023-05-20T04:16:52.933Z,13.90
2023-05-20T04:17:24.880Z,14.00
2023-05-20T04:17:58.119Z,13.80
2023-05-20T04:18:31.675Z,13.80
2023-05-20T04:19:03.738Z,13.80
2023-05-20T04:19:38.161Z,13.80
2023-05-20T04:20:11.281Z,13.70
2023-05-20T04:20:43.307Z,13.70
2023-05-20T04:21:16.134Z,13.70
2023-05-20T04:21:48.032Z,13.70
2023-05-20T04:22:19.924Z,13.60
2023-05-20T04:22:53.995Z,13.70
2023-05-20T04:23:25.937Z,13.60
2023-05-20T04:23:57.779Z,13.60
2023-05-20T04:24:30.692Z,13.60
2023-05-20T04:25:03.592Z,13.70
2023-05-20T04:25:37.154Z,13.70
2023-05-20T04:26:10.211Z,13.70
2023-05-20T04:26:42.189Z,13.70
2023-05-20T04:27:14.187Z,13.80
2023-05-20T04:27:47.940Z,13.80
2023-05-20T04:28:23.805Z,13.70
2023-05-20T04:28:59.036Z,13.70
2023-05-20T04:29:34.211Z,13.80
2023-05-20T04:30:07.202Z,13.80
2023-05-20T04:30:39.100Z,13.80
2023-05-20T04:31:12.556Z,13.80
2023-05-20T04:31:45.543Z,13.90
2023-05-20T04:32:19.466Z,13.90
2023-05-20T04:32:52.388Z,13.80
2023-05-20T04:33:24.253Z,13.90
2023-05-20T04:33:56.673Z,13.90
2023-05-20T04:34:29.834Z,13.90
2023-05-20T04:35:02.973Z,13.90
2023-05-20T04:35:35.165Z,13.90
2023-05-20T04:36:10.025Z,13.90
2023-05-20T04:36:43.467Z,13.90
2023-05-20T04:37:15.470Z,13.90
2023-05-20T04:37:48.003Z,13.90
2023-05-20T04:38:20.907Z,13.90
2023-05-20T04:38:53.301Z,13.90
2023-05-20T04:39:26.832Z,13.90
2023-05-20T04:39:59.637Z,14.00
2023-05-20T04:40:32.365Z,13.90
2023-05-20T04:41:07.034Z,14.00
2023-05-20T04:41:39.875Z,14.00
2023-05-20T04:42:11.725Z,14.00
2023-05-20T04:42:44.675Z,13.90
2023-05-20T04:43:17.431Z,13.90
2023-05-20T04:43:49.838Z,13.90
2023-05-20T04:44:22.695Z,13.90
2023-05-20T04:44:55.526Z,13.90
2023-05-20T04:45:27.413Z,13.80
2023-05-20T04:46:01.333Z,13.90
2023-05-20T04:46:34.865Z,13.90
2023-05-20T04:47:07.888Z,13.90
2023-05-20T04:47:39.912Z,13.80
2023-05-20T04:48:11.875Z,13.90
2023-05-20T04:48:44.804Z,13.80
2023-05-20T04:49:17.002Z,13.90
2023-05-20T04:49:50.234Z,13.90
2023-05-20T04:50:23.157Z,13.90
2023-05-20T04:50:55.005Z,13.90
2023-05-20T04:51:26.825Z,13.90
2023-05-20T04:51:58.769Z,13.90
2023-05-20T04:52:31.920Z,13.90
2023-05-20T04:53:04.367Z,13.90
2023-05-20T04:53:37.302Z,13.90
2023-05-20T04:54:09.194Z,13.90
2023-05-20T04:54:41.436Z,13.80
2023-05-20T04:55:15.835Z,13.80
2023-05-20T04:55:47.841Z,13.80
2023-05-20T04:56:21.008Z,13.80
2023-05-20T04:56:53.822Z,13.80
2023-05-20T04:57:25.726Z,13.80
2023-05-20T04:57:57.582Z,13.80
2023-05-20T04:58:31.732Z,13.80
2023-05-20T04:59:04.044Z,13.80
2023-05-20T04:59:35.917Z,13.80
2023-05-20T05:00:10.311Z,13.90
2023-05-20T05:00:42.938Z,13.90
2023-05-20T05:01:14.842Z,13.90
2023-05-20T05:01:47.777Z,13.80
2023-05-20T05:02:19.629Z,13.90
2023-05-20T05:02:52.469Z,13.80
2023-05-20T05:03:24.276Z,13.90
2023-05-20T05:03:56.184Z,13.90
2023-05-20T05:04:29.353Z,13.90
2023-05-20T05:05:01.506Z,13.90
2023-05-20T05:05:34.510Z,13.90
2023-05-20T05:06:07.571Z,14.00
2023-05-20T05:06:39.418Z,14.00
2023-05-20T05:07:11.358Z,13.90
2023-05-20T05:07:44.164Z,13.90
2023-05-20T05:08:17.251Z,13.90
2023-05-20T05:08:49.132Z,13.90
2023-05-20T05:09:22.476Z,13.90
2023-05-20T05:09:54.320Z,13.90
2023-05-20T05:10:26.129Z,14.00
2023-05-20T05:10:58.947Z,14.00
2023-05-20T05:11:32.214Z,14.10
2023-05-20T05:12:04.559Z,14.00
2023-05-20T05:12:37.338Z,14.00
2023-05-20T05:13:09.229Z,14.00
2023-05-20T05:13:41.112Z,14.00
2023-05-20T05:14:13.906Z,14.00
2023-05-20T05:14:45.773Z,13.90
2023-05-20T05:15:17.824Z,14.00
2023-05-20T05:15:58.686Z,14.00
2023-05-20T05:16:30.655Z,14.10
2023-05-20T05:17:03.854Z,14.10
2023-05-20T05:17:35.843Z,14.10
2023-05-20T05:18:07.877Z,14.10
2023-05-20T05:18:40.699Z,14.20
2023-05-20T05:19:13.619Z,14.10
2023-05-20T05:19:45.570Z,14.10
2023-05-20T05:20:18.806Z,14.10
2023-05-20T05:20:50.776Z,14.10
2023-05-20T05:21:22.624Z,14.10
2023-05-20T05:21:55.471Z,14.10
2023-05-20T05:22:27.365Z,14.10
2023-05-20T05:22:59.206Z,14.10
2023-05-20T05:23:32.385Z,14.00
2023-05-20T05:24:04.347Z,14.10
2023-05-20T05:24:36.167Z,14.10
2023-05-20T05:25:10.180Z,14.10
2023-05-20T05:25:42.381Z,14.10
2023-05-20T05:26:14.302Z,14.10
2023-05-20T05:26:48.450Z,14.10
2023-05-20T05:27:20.356Z,14.10
2023-05-20T05:27:52.260Z,14.10
2023-05-20T05:28:25.436Z,14.10
2023-05-20T05:28:57.328Z,14.10
2023-05-20T05:29:29.158Z,14.10
2023-05-20T05:30:02.597Z,14.10
2023-05-20T05:30:34.486Z,14.10
2023-05-20T05:31:07.146Z,14.10
2023-05-20T05:31:39.952Z,14.10
2023-05-20T05:32:11.951Z,14.10
2023-05-20T05:32:43.906Z,14.10
2023-05-20T05:33:16.840Z,14.10
2023-05-20T05:33:48.739Z,14.10
2023-05-20T05:34:20.587Z,14.10
2023-05-20T05:34:53.417Z,14.20
2023-05-20T05:35:25.256Z,14.20
2023-05-20T05:35:58.922Z,14.10
2023-05-20T05:36:32.718Z,14.10
2023-05-20T05:37:04.915Z,14.20
2023-05-20T05:37:37.873Z,14.20
2023-05-20T05:38:10.406Z,14.20
2023-05-20T05:38:42.234Z,14.20
2023-05-20T05:39:15.008Z,14.20
2023-05-20T05:39:47.003Z,14.20
2023-05-20T05:40:20.008Z,14.20
2023-05-20T05:40:51.988Z,14.20
2023-05-20T05:41:23.846Z,14.20
2023-05-20T05:41:58.079Z,14.20
2023-05-20T05:42:29.952Z,14.20
2023-05-20T05:43:01.791Z,14.20
2023-05-20T05:43:34.642Z,14.20
2023-05-20T05:44:06.741Z,14.20
2023-05-20T05:44:38.633Z,14.20
2023-05-20T05:45:12.287Z,14.20
2023-05-20T05:45:44.365Z,14.30
2023-05-20T05:46:16.312Z,14.20
2023-05-20T05:46:49.171Z,14.30
2023-05-20T05:47:21.716Z,14.30
2023-05-20T05:47:54.005Z,14.30
2023-05-20T05:48:26.929Z,14.30
2023-05-20T05:48:58.984Z,14.30
2023-05-20T05:49:30.866Z,14.30
2023-05-20T05:50:03.773Z,14.30
2023-05-20T05:50:35.816Z,14.20
2023-05-20T05:51:07.657Z,14.30
2023-05-20T05:51:40.432Z,14.20
2023-05-20T05:52:12.839Z,14.20
2023-05-20T05:52:44.706Z,14.20
2023-05-20T05:53:17.696Z,14.20
2023-05-20T05:53:49.519Z,14.20
2023-05-20T05:54:21.385Z,14.20
2023-05-20T05:54:55.347Z,14.20
2023-05-20T05:55:27.244Z,14.30
2023-05-20T05:56:00.089Z,14.30
2023-05-20T05:56:32.042Z,14.30
2023-05-20T05:57:06.600Z,14.30
2023-05-20T05:57:39.727Z,14.30
2023-05-20T05:58:12.311Z,14.30
2023-05-20T05:58:44.159Z,14.20
2023-05-20T05:59:17.332Z,14.20
2023-05-20T05:59:49.254Z,14.20
2023-05-20T06:00:21.283Z,14.20
2023-05-20T06:00:54.805Z,14.20
2023-05-20T06:01:27.018Z,14.20
2023-05-20T06:01:59.025Z,14.20
2023-05-20T06:02:36.041Z,14.20
2023-05-20T06:03:08.205Z,14.20
2023-05-20T06:03:41.108Z,14.20
2023-05-20T06:04:13.095Z,14.20
2023-05-20T06:04:45.077Z,14.20
2023-05-20T06:05:17.904Z,14.20
2023-05-20T06:05:49.820Z,14.20
2023-05-20T06:06:21.633Z,14.30
2023-05-20T06:06:54.436Z,14.30
2023-05-20T06:07:26.304Z,14.30
2023-05-20T06:07:58.287Z,14.30
2023-05-20T06:08:31.113Z,14.30
2023-05-20T06:09:03.449Z,14.30
2023-05-20T06:09:35.386Z,14.30
2023-05-20T06:10:09.227Z,14.30
2023-05-20T06:10:41.186Z,14.30
2023-05-20T06:11:13.135Z,14.30
2023-05-20T06:11:46.014Z,14.30
2023-05-20T06:12:19.189Z,14.40
2023-05-20T06:12:51.054Z,14.30
2023-05-20T06:13:24.350Z,14.40
2023-05-20T06:13:56.366Z,14.40
2023-05-20T06:14:28.303Z,14.40
2023-05-20T06:15:01.185Z,14.40
2023-05-20T06:15:33.260Z,14.40
2023-05-20T06:16:06.649Z,14.40
2023-05-20T06:16:39.156Z,14.30
2023-05-20T06:17:11.107Z,14.30
2023-05-20T06:17:44.104Z,14.30
2023-05-20T06:18:16.511Z,14.40
2023-05-20T06:18:50.046Z,14.40
2023-05-20T06:19:22.934Z,14.40
2023-05-20T06:19:54.909Z,14.40
2023-05-20T06:20:26.853Z,14.40
2023-05-20T06:20:59.871Z,14.40
2023-05-20T06:21:32.473Z,14.40
2023-05-20T06:22:04.721Z,14.50
2023-05-20T06:22:37.498Z,14.50
2023-05-20T06:23:09.343Z,14.40
2023-05-20T06:23:41.246Z,14.60
2023-05-20T06:24:14.080Z,14.40
2023-05-20T06:24:45.926Z,14.30
2023-05-20T06:25:18.085Z,14.30
2023-05-20T06:25:51.826Z,14.30
2023-05-20T06:26:23.700Z,14.30
2023-05-20T06:26:55.592Z,14.30
2023-05-20T06:27:29.827Z,14.30
2023-05-20T06:28:01.715Z,14.30
2023-05-20T06:28:33.715Z,14.40
2023-05-20T06:29:06.594Z,14.40
2023-05-20T06:29:38.474Z,14.40
2023-05-20T06:30:11.374Z,14.40
2023-05-20T06:30:44.473Z,14.50
2023-05-20T06:31:16.603Z,14.50
2023-05-20T06:31:48.489Z,14.50
2023-05-20T06:32:21.283Z,14.50
2023-05-20T06:32:53.286Z,14.50
2023-05-20T06:33:26.170Z,14.50
2023-05-20T06:33:59.145Z,14.50
2023-05-20T06:34:31.071Z,14.50
2023-05-20T06:35:03.911Z,14.50
2023-05-20T06:35:36.103Z,14.50
2023-05-20T06:36:09.237Z,14.50
2023-05-20T06:36:41.164Z,14.50
2023-05-20T06:37:12.994Z,14.50
2023-05-20T06:37:45.896Z,14.60
2023-05-20T06:38:17.810Z,14.60
2023-05-20T06:38:49.702Z,14.60
2023-05-20T06:39:22.540Z,14.60
2023-05-20T06:39:55.054Z,14.70
2023-05-20T06:40:27.474Z,14.70
2023-05-20T06:41:00.396Z,14.70
2023-05-20T06:41:32.232Z,14.80
2023-05-20T06:42:05.333Z,14.80
2023-05-20T06:42:38.495Z,14.80
2023-05-20T06:43:10.390Z,14.80
2023-05-20T06:43:42.296Z,14.80
2023-05-20T06:44:15.091Z,14.80
2023-05-20T06:44:47.040Z,14.80
2023-05-20T06:45:18.935Z,14.80
2023-05-20T06:45:51.816Z,14.80
2023-05-20T06:46:23.762Z,14.80
2023-05-20T06:46:55.721Z,14.70
2023-05-20T06:47:28.724Z,14.60
2023-05-20T06:48:00.704Z,14.60
2023-05-20T06:48:32.654Z,14.60
2023-05-20T06:49:05.623Z,14.60
2023-05-20T06:49:37.523Z,14.60
2023-05-20T06:50:10.351Z,14.60
2023-05-20T06:50:42.247Z,14.70
2023-05-20T06:51:15.114Z,14.60
2023-05-20T06:51:46.950Z,14.60
2023-05-20T06:52:18.790Z,14.70
2023-05-20T06:52:51.601Z,14.70
2023-05-20T06:53:23.551Z,14.80
2023-05-20T06:53:56.345Z,14.80
2023-05-20T06:54:28.148Z,14.80
2023-05-20T06:54:59.975Z,14.80
2023-05-20T06:55:33.058Z,14.70
2023-05-20T06:56:05.672Z,14.70
2023-05-20T06:56:37.547Z,14.70
2023-05-20T06:57:10.666Z,14.60
2023-05-20T06:57:44.800Z,14.70
2023-05-20T06:58:16.613Z,14.70
2023-05-20T06:58:49.542Z,14.70
2023-05-20T06:59:21.394Z,14.70
2023-05-20T06:59:53.286Z,14.70
2023-05-20T07:00:26.188Z,14.80
2023-05-20T07:00:58.175Z,14.80
2023-05-20T07:01:30.102Z,14.70
2023-05-20T07:02:03.061Z,14.80